createdAt,value
2023-04-05T00:00:23.552Z,15.27
2023-04-05T00:05:31.108Z,13.77
2023-04-05T00:10:32.652Z,14.18
2023-04-05T00:15:34.225Z,12.88
2023-04-05T00:20:37.462Z,13.15
2023-04-05T00:25:38.869Z,12.50
2023-04-05T00:30:40.709Z,12.27
2023-04-05T00:35:42.326Z,11.73
2023-04-05T00:40:43.960Z,12.32
2023-04-05T00:45:46.376Z,11.25
2023-04-05T00:50:50.038Z,11.63
2023-04-05T00:55:54.086Z,11.40
2023-04-05T01:01:18.584Z,11.77
2023-04-05T01:06:42.182Z,11.45
2023-04-05T01:11:47.271Z,9.63
2023-04-05T01:16:49.890Z,10.18
2023-04-05T01:22:14.116Z,9.73
2023-04-05T01:27:36.409Z,10.98
2023-04-05T01:32:54.227Z,11.43
2023-04-05T01:38:00.890Z,11.07
2023-04-05T01:43:03.230Z,10.88
2023-04-05T01:48:04.841Z,10.98
2023-04-05T01:53:09.292Z,10.85
2023-04-05T01:58:10.830Z,10.05
2023-04-05T02:03:12.404Z,10.68
2023-04-05T02:08:14.366Z,10.18
2023-04-05T02:13:16.042Z,10.10
2023-04-05T02:18:22.434Z,10.75
2023-04-05T02:23:24.051Z,10.50
2023-04-05T02:28:26.049Z,10.00
2023-04-05T02:33:27.888Z,9.80
2023-04-05T02:38:29.706Z,10.35
2023-04-05T02:43:31.157Z,10.27
2023-04-05T02:48:32.853Z,10.85
2023-04-05T02:53:35.352Z,9.65
2023-04-05T02:58:36.784Z,10.23
2023-04-05T03:03:40.258Z,10.45
2023-04-05T03:08:48.584Z,9.80
2023-04-05T03:13:50.186Z,10.65
2023-04-05T03:18:51.600Z,11.07
2023-04-05T03:23:53.038Z,9.68
2023-04-05T03:28:54.480Z,9.57
2023-04-05T03:33:56.063Z,10.55
2023-04-05T03:38:57.536Z,10.57
2023-04-05T03:43:59.261Z,10.50
2023-04-05T03:49:01.390Z,10.57
2023-04-05T03:54:02.866Z,9.75
2023-04-05T03:59:04.335Z,10.80
2023-04-05T04:04:05.842Z,10.07
2023-04-05T04:09:07.294Z,11.82
2023-04-05T04:14:08.713Z,11.57
2023-04-05T04:19:10.209Z,11.38
2023-04-05T04:24:18.629Z,11.43
2023-04-05T04:29:20.206Z,11.50
2023-04-05T04:34:21.666Z,9.77
2023-04-05T04:39:26.797Z,10.40
2023-04-05T04:44:28.307Z,10.35
2023-04-05T04:49:33.086Z,11.27
2023-04-05T04:54:36.055Z,11.20
2023-04-05T04:59:37.602Z,10.55
2023-04-05T05:04:41.483Z,10.90
2023-04-05T05:09:43.375Z,11.80
2023-04-05T05:14:44.786Z,10.63
2023-04-05T05:19:46.246Z,10.43
2023-04-05T05:24:48.134Z,10.27
2023-04-05T05:29:49.646Z,10.75
2023-04-05T05:34:51.105Z,10.55
2023-04-05T05:39:52.565Z,10.65
2023-04-05T05:44:54.105Z,10.57
2023-04-05T05:49:56.206Z,11.05
2023-04-05T05:54:57.620Z,11.50
2023-04-05T05:59:59.025Z,11.32
2023-04-05T06:05:02.192Z,10.30
2023-04-05T06:10:07.839Z,10.50
2023-04-05T06:15:09.734Z,10.80
2023-04-05T06:20:11.834Z,11.55
2023-04-05T06:25:13.444Z,11.43
2023-04-05T06:30:15.027Z,11.10
2023-04-05T06:35:16.556Z,11.75
2023-04-05T06:40:18.333Z,11.50
2023-04-05T06:45:19.885Z,11.43
2023-04-05T06:50:21.429Z,10.15
2023-04-05T06:55:22.911Z,11.68
2023-04-05T07:00:24.404Z,11.65
2023-04-05T07:05:26.060Z,11.70
2023-04-05T07:10:27.528Z,10.60
2023-04-05T07:15:28.982Z,12.95
2023-04-05T07:20:30.436Z,11.38
2023-04-05T07:25:32.306Z,10.75
2023-04-05T07:30:33.730Z,11.40
2023-04-05T07:35:35.321Z,10.82
2023-04-05T07:40:37.029Z,10.40
2023-04-05T07:45:38.480Z,10.43
2023-04-05T07:50:41.216Z,11.30
2023-04-05T07:55:43.145Z,10.82
2023-04-05T08:00:44.579Z,10.32
2023-04-05T08:05:46.035Z,8.00
2023-04-05T08:10:47.482Z,7.65
2023-04-05T08:15:48.969Z,6.43
2023-04-05T08:20:57.209Z,6.10
2023-04-05T08:25:58.665Z,8.35
2023-04-05T08:31:00.369Z,8.32
2023-04-05T08:36:06.233Z,7.95
2023-04-05T08:41:19.044Z,7.45
2023-04-05T08:46:22.064Z,7.30
2023-04-05T08:51:25.872Z,7.68
2023-04-05T08:56:32.217Z,6.95
2023-04-05T09:01:37.048Z,5.78
2023-04-05T09:06:39.140Z,5.10
2023-04-05T09:11:40.968Z,4.55
2023-04-05T09:16:42.788Z,3.53
2023-04-05T09:22:02.144Z,4.28
2023-04-05T09:32:18.166Z,4.30
2023-04-05T09:37:20.921Z,4.20
2023-04-05T09:42:26.069Z,4.40
2023-04-05T09:47:32.470Z,4.20
2023-04-05T09:52:34.152Z,4.00
2023-04-05T09:57:37.739Z,4.53
2023-04-05T10:02:39.953Z,4.85
2023-04-05T10:07:42.993Z,4.75
2023-04-05T10:12:46.718Z,5.07
2023-04-05T10:18:06.524Z,4.97
2023-04-05T10:23:12.685Z,4.93
2023-04-05T10:28:36.274Z,4.35
2023-04-05T10:33:46.424Z,4.25
2023-04-05T10:39:04.194Z,4.65
2023-04-05T10:44:18.835Z,4.72
2023-04-05T10:49:37.663Z,4.45
2023-04-05T10:54:40.282Z,5.05
2023-04-05T10:59:45.138Z,5.38
2023-04-05T11:04:46.966Z,5.55
2023-04-05T11:09:57.559Z,4.70
2023-04-05T11:15:36.597Z,5.53
2023-04-05T11:20:44.038Z,5.70
2023-04-05T11:25:54.169Z,5.38
2023-04-05T11:30:57.316Z,5.97
2023-04-05T11:36:03.124Z,6.72
2023-04-05T11:41:17.862Z,5.40
2023-04-05T11:46:21.317Z,5.25
2023-04-05T11:51:24.466Z,4.97
2023-04-05T11:56:26.111Z,4.63
2023-04-05T12:01:27.575Z,4.00
2023-04-05T12:06:29.009Z,3.13
2023-04-05T12:11:33.329Z,3.40
2023-04-05T12:16:34.766Z,3.58
2023-04-05T12:21:36.837Z,3.28
2023-04-05T12:26:38.700Z,3.38
2023-04-05T12:31:45.193Z,3.63
2023-04-05T12:36:46.784Z,3.63
2023-04-05T12:41:59.505Z,3.65
2023-04-05T12:47:09.198Z,3.63
2023-04-05T12:52:11.580Z,4.13
2023-04-05T12:57:14.275Z,3.58
2023-04-05T13:02:15.778Z,4.35
2023-04-05T13:07:17.298Z,4.05
2023-04-05T13:12:18.910Z,3.85
2023-04-05T13:17:21.363Z,4.80
2023-04-05T13:22:22.808Z,3.53
2023-04-05T13:27:24.256Z,3.88
2023-04-05T13:32:25.891Z,4.22
2023-04-05T13:37:27.428Z,3.90
2023-04-05T13:42:28.898Z,3.90
2023-04-05T13:47:30.397Z,4.10
2023-04-05T13:52:31.844Z,3.92
2023-04-05T13:57:33.292Z,4.03
2023-04-05T14:02:34.959Z,4.22
2023-04-05T14:07:36.954Z,4.97
2023-04-05T14:12:39.277Z,4.20
2023-04-05T14:17:40.890Z,4.10
2023-04-05T14:22:42.382Z,5.10
2023-04-05T14:27:43.849Z,4.22
2023-04-05T14:32:45.341Z,8.45
2023-04-05T14:37:46.806Z,3.97
2023-04-05T14:42:50.218Z,7.63
2023-04-05T14:47:51.994Z,3.40
2023-04-05T14:52:53.960Z,4.80
2023-04-05T14:57:55.411Z,4.22
2023-04-05T15:02:56.985Z,9.80
2023-04-05T15:07:58.509Z,4.32
2023-04-05T15:13:00.344Z,2.90
2023-04-05T15:18:02.521Z,4.47
2023-04-05T15:23:04.022Z,3.53
2023-04-05T15:28:06.995Z,4.00
2023-04-05T15:33:08.631Z,5.43
2023-04-05T15:38:10.217Z,4.93
2023-04-05T15:43:11.686Z,4.30
2023-04-05T15:48:13.878Z,4.55
2023-04-05T15:53:15.611Z,4.60
2023-04-05T15:58:17.062Z,4.05
2023-04-05T16:03:18.628Z,5.28
2023-04-05T16:08:20.087Z,4.40
2023-04-05T16:13:21.683Z,4.40
2023-04-05T16:18:24.324Z,4.65
2023-04-05T16:23:25.885Z,5.10
2023-04-05T16:28:27.332Z,5.28
2023-04-05T16:33:28.732Z,7.65
2023-04-05T16:38:30.184Z,4.60
2023-04-05T16:43:31.634Z,6.35
2023-04-05T16:48:33.075Z,6.80
2023-04-05T16:53:34.524Z,5.68
2023-04-05T16:58:36.003Z,6.50
2023-04-05T17:03:37.688Z,6.45
2023-04-05T17:08:39.148Z,6.57
2023-04-05T17:13:41.899Z,6.65
2023-04-05T17:18:43.356Z,7.95
2023-04-05T17:23:44.821Z,9.32
2023-04-05T17:28:46.604Z,9.32
2023-04-05T17:33:48.895Z,7.57
2023-04-05T17:38:50.712Z,8.88
2023-04-05T17:43:52.180Z,9.70
2023-04-05T17:48:54.157Z,9.88
2023-04-05T17:53:57.433Z,10.52
2023-04-05T17:58:58.878Z,14.48
2023-04-05T18:04:01.197Z,16.98
2023-04-05T18:09:03.668Z,16.40
2023-04-05T18:14:05.515Z,15.77
2023-04-05T18:19:07.416Z,15.50
2023-04-05T18:24:10.613Z,16.38
2023-04-05T18:29:12.287Z,19.10
2023-04-05T18:34:13.757Z,24.58
2023-04-05T18:39:15.713Z,21.85
2023-04-05T18:44:17.168Z,24.65
2023-04-05T18:49:19.201Z,25.30
2023-04-05T18:54:20.807Z,26.52
2023-04-05T18:59:22.643Z,27.52
2023-04-05T19:04:24.126Z,28.60
2023-04-05T19:09:26.542Z,27.80
2023-04-05T19:14:28.048Z,29.67
2023-04-05T19:19:29.448Z,28.10
2023-04-05T19:24:30.850Z,25.80
2023-04-05T19:29:34.572Z,26.50
2023-04-05T19:34:37.981Z,30.98
2023-04-05T19:39:39.558Z,29.20
2023-04-05T19:44:49.598Z,32.30
2023-04-05T19:49:52.630Z,33.10
2023-04-05T19:54:54.463Z,32.53
2023-04-05T19:59:55.963Z,30.52
2023-04-05T20:04:57.385Z,30.20
2023-04-05T20:09:58.827Z,24.85
2023-04-05T20:15:00.275Z,23.58
2023-04-05T20:20:01.811Z,24.10
2023-04-05T20:25:31.555Z,24.17
2023-04-05T20:30:33.051Z,23.23
2023-04-05T20:35:36.191Z,22.73
2023-04-05T20:40:37.642Z,23.63
2023-04-05T20:45:39.068Z,22.45
2023-04-05T20:50:40.931Z,25.17
2023-04-05T20:55:42.429Z,28.10
2023-04-05T21:00:43.903Z,28.50
2023-04-05T21:05:45.455Z,26.92
2023-04-05T21:10:46.969Z,27.02
2023-04-05T21:15:49.034Z,28.08
2023-04-05T21:20:52.126Z,40.42
2023-04-05T21:25:57.452Z,26.95
2023-04-05T21:30:58.971Z,30.33
2023-04-05T21:36:00.587Z,34.58
2023-04-05T21:41:02.081Z,35.25
2023-04-05T21:46:03.492Z,36.30
2023-04-05T21:51:04.923Z,37.03
2023-04-05T21:56:06.427Z,35.75
2023-04-05T22:01:07.887Z,36.58
2023-04-05T22:06:09.309Z,36.03
2023-04-05T22:11:10.731Z,34.70
2023-04-05T22:16:12.509Z,41.75
2023-04-05T22:21:13.972Z,40.78
2023-04-05T22:26:15.373Z,40.67
2023-04-05T22:31:17.246Z,39.40
2023-04-05T22:36:18.674Z,37.90
2023-04-05T22:41:20.136Z,36.22
2023-04-05T22:46:21.669Z,35.78
2023-04-05T22:51:23.186Z,34.65
2023-04-05T22:56:24.671Z,35.83
2023-04-05T23:01:26.582Z,35.28
2023-04-05T23:06:28.055Z,34.90
2023-04-05T23:11:29.471Z,33.25
2023-04-05T23:16:30.903Z,34.08
2023-04-05T23:21:32.392Z,34.10
2023-04-05T23:26:34.468Z,33.65
2023-04-05T23:31:35.919Z,33.63
2023-04-05T23:36:37.657Z,33.83
2023-04-05T23:41:39.350Z,33.53
2023-04-05T23:46:40.902Z,33.28
2023-04-05T23:51:42.896Z,33.00
2023-04-05T23:56:44.683Z,33.20
